createdAt,value
2023-02-11T00:01:20.607Z,12.65
2023-02-11T00:03:48.887Z,12.38
2023-02-11T00:06:18.929Z,12.60
2023-02-11T00:08:47.594Z,12.38
2023-02-11T00:11:17.020Z,13.05
2023-02-11T00:13:46.364Z,12.45
2023-02-11T00:16:16.437Z,12.75
2023-02-11T00:18:44.964Z,12.68
2023-02-11T00:21:15.564Z,14.13
2023-02-11T00:23:46.246Z,12.83
2023-02-11T00:26:15.147Z,13.10
2023-02-11T00:28:45.073Z,12.82
2023-02-11T00:31:13.602Z,13.85
2023-02-11T00:33:41.867Z,12.75
2023-02-11T00:36:12.967Z,13.38
2023-02-11T00:38:41.228Z,13.05
2023-02-11T00:41:10.894Z,13.13
2023-02-11T00:43:39.241Z,18.92
2023-02-11T00:46:07.884Z,15.80
2023-02-11T00:48:36.389Z,13.88
2023-02-11T00:51:05.456Z,13.10
2023-02-11T00:53:34.137Z,13.13
2023-02-11T00:56:02.599Z,12.52
2023-02-11T00:58:32.492Z,12.50
2023-02-11T01:01:00.741Z,13.85
2023-02-11T01:03:29.267Z,13.55
2023-02-11T01:05:57.611Z,13.30
2023-02-11T01:08:26.033Z,13.20
2023-02-11T01:10:58.847Z,13.90
2023-02-11T01:13:27.841Z,13.32
2023-02-11T01:15:58.127Z,13.18
2023-02-11T01:18:26.930Z,13.18
2023-02-11T01:20:55.650Z,13.55
2023-02-11T01:23:24.889Z,13.93
2023-02-11T01:25:54.401Z,13.70
2023-02-11T01:28:24.402Z,13.48
2023-02-11T01:30:54.275Z,13.35
2023-02-11T01:33:24.873Z,12.90
2023-02-11T01:35:53.589Z,12.90
2023-02-11T01:38:26.518Z,12.77
2023-02-11T01:40:57.018Z,12.43
2023-02-11T01:43:27.299Z,12.02
2023-02-11T01:46:21.240Z,12.50
2023-02-11T01:48:54.177Z,12.75
2023-02-11T01:51:25.515Z,12.55
2023-02-11T01:54:13.022Z,12.48
2023-02-11T01:57:02.482Z,12.63
2023-02-11T01:59:34.393Z,12.35
2023-02-11T02:02:07.801Z,12.32
2023-02-11T02:04:45.598Z,12.75
2023-02-11T02:07:20.894Z,12.55
2023-02-11T02:09:53.738Z,11.98
2023-02-11T02:12:21.944Z,12.45
2023-02-11T02:14:50.370Z,12.35
2023-02-11T02:17:30.140Z,11.75
2023-02-11T02:20:40.861Z,11.63
2023-02-11T02:23:25.743Z,12.00
2023-02-11T02:26:16.207Z,12.13
2023-02-11T02:29:15.734Z,12.02
2023-02-11T02:32:03.559Z,11.70
2023-02-11T02:34:43.203Z,11.52
2023-02-11T02:37:18.478Z,11.18
2023-02-11T02:39:49.592Z,12.00
2023-02-11T02:42:19.451Z,11.95
2023-02-11T02:44:50.384Z,11.73
2023-02-11T02:47:18.675Z,11.98
2023-02-11T02:49:48.271Z,12.35
2023-02-11T02:52:23.857Z,11.27
2023-02-11T02:55:21.027Z,12.02
2023-02-11T02:58:06.743Z,11.57
2023-02-11T03:00:44.252Z,11.55
2023-02-11T03:03:23.200Z,11.50
2023-02-11T03:05:58.033Z,12.07
2023-02-11T03:08:31.677Z,11.65
2023-02-11T03:11:02.228Z,11.07
2023-02-11T03:13:33.785Z,11.40
2023-02-11T03:16:07.191Z,11.18
2023-02-11T03:18:37.951Z,10.68
2023-02-11T03:21:10.112Z,10.82
2023-02-11T03:23:41.504Z,10.32
2023-02-11T03:26:16.255Z,10.20
2023-02-11T03:28:50.950Z,10.07
2023-02-11T03:31:26.804Z,9.77
2023-02-11T03:34:02.355Z,9.45
2023-02-11T03:36:37.594Z,9.10
2023-02-11T03:39:07.003Z,9.25
2023-02-11T03:41:36.870Z,9.20
2023-02-11T03:44:07.298Z,8.60
2023-02-11T03:46:39.972Z,9.10
2023-02-11T03:49:14.460Z,9.73
2023-02-11T03:51:45.220Z,9.50
2023-02-11T03:54:17.640Z,9.18
2023-02-11T03:56:52.064Z,9.05
2023-02-11T03:59:20.687Z,8.05
2023-02-11T04:01:49.022Z,8.98
2023-02-11T04:04:17.716Z,8.25
2023-02-11T04:06:47.665Z,8.73
2023-02-11T04:09:16.120Z,8.82
2023-02-11T04:11:44.420Z,8.25
2023-02-11T04:14:12.647Z,8.25
2023-02-11T04:16:40.923Z,8.07
2023-02-11T04:19:09.214Z,8.65
2023-02-11T04:21:37.430Z,8.73
2023-02-11T04:24:07.453Z,8.20
2023-02-11T04:26:35.689Z,8.13
2023-02-11T04:29:03.909Z,7.97
2023-02-11T04:31:32.734Z,8.00
2023-02-11T04:34:00.992Z,7.82
2023-02-11T04:36:29.196Z,7.85
2023-02-11T04:38:57.445Z,7.63
2023-02-11T04:41:27.098Z,7.35
2023-02-11T04:43:55.371Z,8.20
2023-02-11T04:46:23.699Z,7.78
2023-02-11T04:48:52.021Z,8.35
2023-02-11T04:51:20.242Z,8.60
2023-02-11T04:53:48.521Z,7.80
2023-02-11T04:56:16.742Z,7.68
2023-02-11T04:58:46.566Z,7.45
2023-02-11T05:01:16.378Z,7.93
2023-02-11T05:03:44.874Z,7.97
2023-02-11T05:06:13.374Z,7.88
2023-02-11T05:08:41.581Z,8.38
2023-02-11T05:11:09.889Z,7.90
2023-02-11T05:13:38.191Z,7.95
2023-02-11T05:16:08.238Z,8.43
2023-02-11T05:18:39.326Z,8.00
2023-02-11T05:21:08.513Z,7.72
2023-02-11T05:23:37.085Z,8.00
2023-02-11T05:26:06.081Z,8.45
2023-02-11T05:28:35.300Z,8.73
2023-02-11T05:31:04.076Z,8.15
2023-02-11T05:33:34.070Z,7.55
2023-02-11T05:36:03.830Z,7.45
2023-02-11T05:38:32.099Z,7.63
2023-02-11T05:41:00.537Z,8.02
2023-02-11T05:43:28.929Z,7.20
2023-02-11T05:45:57.242Z,7.60
2023-02-11T05:48:25.509Z,7.68
2023-02-11T05:50:55.132Z,7.68
2023-02-11T05:53:23.481Z,8.13
2023-02-11T05:55:51.890Z,8.07
2023-02-11T05:58:20.417Z,7.55
2023-02-11T06:00:48.826Z,8.00
2023-02-11T06:03:17.092Z,7.40
2023-02-11T06:05:46.002Z,7.05
2023-02-11T06:08:55.568Z,7.70
2023-02-11T06:11:29.664Z,7.28
2023-02-11T06:14:20.089Z,7.25
2023-02-11T06:16:57.812Z,7.60
2023-02-11T06:20:04.760Z,6.93
2023-02-11T06:22:56.742Z,6.38
2023-02-11T06:25:43.552Z,6.93
2023-02-11T06:28:12.407Z,6.82
2023-02-11T06:30:48.312Z,6.75
2023-02-11T06:33:36.544Z,7.25
2023-02-11T06:36:22.653Z,6.57
2023-02-11T06:39:06.969Z,6.97
2023-02-11T06:42:11.158Z,6.85
2023-02-11T06:45:12.226Z,5.80
2023-02-11T06:47:49.817Z,6.88
2023-02-11T06:50:39.838Z,6.40
2023-02-11T06:53:43.299Z,6.30
2023-02-11T06:56:22.186Z,6.97
2023-02-11T06:59:00.220Z,6.50
2023-02-11T07:01:34.092Z,6.35
2023-02-11T07:07:02.517Z,6.75
2023-02-11T07:09:48.797Z,6.00
2023-02-11T07:12:17.470Z,6.10
2023-02-11T07:15:10.624Z,5.70
2023-02-11T07:20:34.264Z,5.90
2023-02-11T07:23:31.335Z,5.75
2023-02-11T07:26:54.000Z,5.13
2023-02-11T07:29:28.639Z,6.03
2023-02-11T07:32:21.491Z,6.30
2023-02-11T07:34:59.503Z,5.25
2023-02-11T07:37:51.570Z,6.70
2023-02-11T07:40:26.902Z,6.25
2023-02-11T07:43:34.611Z,6.43
2023-02-11T07:46:47.341Z,5.95
2023-02-11T07:49:56.772Z,6.00
2023-02-11T07:52:32.086Z,5.45
2023-02-11T07:55:23.228Z,6.32
2023-02-11T07:58:02.410Z,6.15
2023-02-11T08:00:56.921Z,5.45
2023-02-11T08:06:34.771Z,5.97
2023-02-11T08:09:15.140Z,5.65
2023-02-11T08:11:54.681Z,5.97
2023-02-11T08:14:42.263Z,5.97
2023-02-11T08:17:26.477Z,6.28
2023-02-11T08:20:10.613Z,7.25
2023-02-11T08:23:09.653Z,7.80
2023-02-11T08:25:53.472Z,6.78
2023-02-11T08:28:38.181Z,7.75
2023-02-11T08:31:20.679Z,6.72
2023-02-11T08:34:24.993Z,6.38
2023-02-11T08:40:16.329Z,6.47
2023-02-11T08:43:17.150Z,6.75
2023-02-11T08:45:49.518Z,5.93
2023-02-11T08:48:40.221Z,6.40
2023-02-11T08:51:24.945Z,6.20
2023-02-11T08:54:23.478Z,6.45
2023-02-11T08:57:34.999Z,5.97
2023-02-11T09:00:26.090Z,6.57
2023-02-11T09:03:48.597Z,6.25
2023-02-11T09:06:29.297Z,6.50
2023-02-11T09:09:05.576Z,6.22
2023-02-11T09:11:57.275Z,7.00
2023-02-11T09:15:05.671Z,6.65
2023-02-11T09:18:04.521Z,6.32
2023-02-11T09:21:26.587Z,6.75
2023-02-11T09:27:11.069Z,6.72
2023-02-11T09:33:46.360Z,6.72
2023-02-11T09:36:41.572Z,6.65
2023-02-11T09:39:32.413Z,7.15
2023-02-11T09:42:53.642Z,6.70
2023-02-11T09:45:28.189Z,6.72
2023-02-11T09:48:05.074Z,7.15
2023-02-11T09:50:43.580Z,6.57
2023-02-11T09:53:42.483Z,5.75
2023-02-11T09:56:29.204Z,6.38
2023-02-11T09:59:43.261Z,6.45
2023-02-11T10:02:52.702Z,6.28
2023-02-11T10:05:53.646Z,6.03
2023-02-11T10:08:43.284Z,6.83
2023-02-11T10:12:00.437Z,6.15
2023-02-11T10:15:34.587Z,6.35
2023-02-11T10:19:04.346Z,6.55
2023-02-11T10:22:39.204Z,6.72
2023-02-11T10:25:53.526Z,7.40
2023-02-11T10:28:52.345Z,7.80
2023-02-11T10:31:42.487Z,7.88
2023-02-11T10:34:17.240Z,6.63
2023-02-11T10:37:09.244Z,8.05
2023-02-11T10:40:03.019Z,8.15
2023-02-11T10:42:58.063Z,8.18
2023-02-11T10:45:44.853Z,8.02
2023-02-11T10:48:58.653Z,8.80
2023-02-11T10:52:06.620Z,7.95
2023-02-11T10:55:39.457Z,7.90
2023-02-11T10:58:29.440Z,8.70
2023-02-11T11:14:31.121Z,9.80
2023-02-11T11:17:40.297Z,9.18
2023-02-11T11:22:06.292Z,8.95
2023-02-11T11:25:29.890Z,9.38
2023-02-11T11:32:44.161Z,8.60
2023-02-11T11:35:46.635Z,7.85
2023-02-11T11:38:30.065Z,8.50
2023-02-11T11:41:37.787Z,8.30
2023-02-11T11:44:51.199Z,9.43
2023-02-11T11:47:57.117Z,8.60
2023-02-11T11:53:58.779Z,8.52
2023-02-11T11:56:33.562Z,8.68
2023-02-11T11:59:07.435Z,8.20
2023-02-11T12:01:49.598Z,8.43
2023-02-11T12:04:52.030Z,8.52
2023-02-11T12:08:04.510Z,9.30
2023-02-11T12:11:28.246Z,8.45
2023-02-11T12:14:25.752Z,8.32
2023-02-11T12:18:05.737Z,8.30
2023-02-11T12:21:26.291Z,7.60
2023-02-11T12:24:45.045Z,7.63
2023-02-11T12:28:06.303Z,8.15
2023-02-11T12:31:15.082Z,7.63
2023-02-11T12:34:19.099Z,7.45
2023-02-11T12:37:36.416Z,7.32
2023-02-11T12:40:33.259Z,7.55
2023-02-11T12:43:32.925Z,8.40
2023-02-11T12:46:55.167Z,7.65
2023-02-11T12:49:52.503Z,8.02
2023-02-11T12:53:00.653Z,8.07
2023-02-11T12:55:49.490Z,8.23
2023-02-11T12:58:35.531Z,7.70
2023-02-11T13:01:26.501Z,7.40
2023-02-11T13:07:54.452Z,7.25
2023-02-11T13:10:52.567Z,8.02
2023-02-11T13:13:28.093Z,8.00
2023-02-11T13:16:11.457Z,7.55
2023-02-11T13:19:01.221Z,8.20
2023-02-11T13:22:10.486Z,7.60
2023-02-11T13:25:24.401Z,8.00
2023-02-11T13:28:42.975Z,7.53
2023-02-11T13:31:34.478Z,7.50
2023-02-11T13:34:46.811Z,7.47
2023-02-11T13:37:40.529Z,7.18
2023-02-11T13:40:38.122Z,7.22
2023-02-11T13:43:40.793Z,7.90
2023-02-11T13:48:55.290Z,7.00
2023-02-11T13:51:37.399Z,7.25
2023-02-11T13:54:09.085Z,6.53
2023-02-11T13:59:48.442Z,6.70
2023-02-11T14:02:44.400Z,7.00
2023-02-11T14:05:42.454Z,6.53
2023-02-11T14:08:39.405Z,6.78
2023-02-11T14:11:23.882Z,7.43
2023-02-11T14:14:23.937Z,6.75
2023-02-11T14:17:24.872Z,6.68
2023-02-11T14:19:53.461Z,6.75
2023-02-11T14:22:26.035Z,7.00
2023-02-11T14:24:57.724Z,7.20
2023-02-11T14:27:32.962Z,6.97
2023-02-11T14:30:25.452Z,6.45
2023-02-11T14:33:13.431Z,6.40
2023-02-11T14:35:51.332Z,6.60
2023-02-11T14:38:29.652Z,6.97
2023-02-11T14:41:03.153Z,6.82
2023-02-11T14:43:36.415Z,7.05
2023-02-11T14:46:06.585Z,7.35
2023-02-11T14:48:37.289Z,7.88
2023-02-11T14:51:10.521Z,11.33
2023-02-11T14:53:42.112Z,9.70
2023-02-11T14:58:49.105Z,7.72
2023-02-11T15:01:31.681Z,8.30
2023-02-11T15:04:01.298Z,8.32
2023-02-11T15:06:32.844Z,8.65
2023-02-11T15:09:05.015Z,8.65
2023-02-11T15:11:39.377Z,8.32
2023-02-11T15:14:10.748Z,8.85
2023-02-11T15:16:44.795Z,9.98
2023-02-11T15:19:26.743Z,10.60
2023-02-11T15:21:56.753Z,10.73
2023-02-11T15:24:28.087Z,10.90
2023-02-11T15:27:01.114Z,10.50
2023-02-11T15:29:37.412Z,9.70
2023-02-11T15:32:16.837Z,10.73
2023-02-11T15:34:46.178Z,11.40
2023-02-11T15:37:17.776Z,11.00
2023-02-11T15:39:46.067Z,10.65
2023-02-11T15:42:18.587Z,11.65
2023-02-11T15:44:50.630Z,11.80
2023-02-11T15:47:25.956Z,11.25
2023-02-11T15:49:54.252Z,12.15
2023-02-11T15:52:29.048Z,11.85
2023-02-11T15:55:01.736Z,13.20
2023-02-11T15:57:30.577Z,12.18
2023-02-11T16:00:04.373Z,11.75
2023-02-11T16:02:45.210Z,12.18
2023-02-11T16:05:28.253Z,11.07
2023-02-11T16:07:56.926Z,12.00
2023-02-11T16:10:28.027Z,11.80
2023-02-11T16:13:18.516Z,12.95
2023-02-11T16:15:56.501Z,11.82
2023-02-11T16:18:38.288Z,11.85
2023-02-11T16:21:13.410Z,12.18
2023-02-11T16:23:43.249Z,12.70
2023-02-11T16:26:21.848Z,12.02
2023-02-11T16:28:50.417Z,12.60
2023-02-11T16:31:19.073Z,13.07
2023-02-11T16:33:48.842Z,13.25
2023-02-11T16:36:18.266Z,37.85
2023-02-11T16:38:46.503Z,93.40
2023-02-11T16:41:14.907Z,135.55
2023-02-11T16:43:45.420Z,134.18
2023-02-11T16:46:16.444Z,115.43
2023-02-11T16:48:45.124Z,132.60
2023-02-11T16:51:14.783Z,119.63
2023-02-11T16:53:43.048Z,108.28
2023-02-11T16:56:16.732Z,91.38
2023-02-11T16:58:45.501Z,98.28
2023-02-11T17:01:14.548Z,128.43
2023-02-11T17:03:43.815Z,141.55
2023-02-11T17:06:14.620Z,134.70
2023-02-11T17:08:43.081Z,116.82
2023-02-11T17:11:11.527Z,110.82
2023-02-11T17:13:41.960Z,105.28
2023-02-11T17:16:17.091Z,97.47
2023-02-11T17:18:45.434Z,81.70
2023-02-11T17:21:15.070Z,104.00
2023-02-11T17:23:45.773Z,109.70
2023-02-11T17:26:14.006Z,133.03
2023-02-11T17:28:42.216Z,178.13
2023-02-11T17:31:11.189Z,133.65
2023-02-11T17:33:39.621Z,101.63
2023-02-11T17:36:09.754Z,91.05
2023-02-11T17:38:39.588Z,84.53
2023-02-11T17:41:07.891Z,70.72
2023-02-11T17:43:36.129Z,68.57
2023-02-11T17:46:07.897Z,64.60
2023-02-11T17:48:37.657Z,57.47
2023-02-11T17:51:06.160Z,53.40
2023-02-11T17:53:34.427Z,55.05
2023-02-11T17:56:06.375Z,51.35
2023-02-11T17:58:34.594Z,45.92
2023-02-11T18:01:02.856Z,43.10
2023-02-11T18:03:31.184Z,42.47
2023-02-11T18:06:01.471Z,40.78
2023-02-11T18:08:30.299Z,39.42
2023-02-11T18:10:58.597Z,37.67
2023-02-11T18:13:29.241Z,36.50
2023-02-11T18:16:03.038Z,32.87
2023-02-11T18:18:31.370Z,31.92
2023-02-11T18:21:00.542Z,31.67
2023-02-11T18:23:29.731Z,28.80
2023-02-11T18:25:58.053Z,28.20
2023-02-11T18:28:27.867Z,25.75
2023-02-11T18:30:59.289Z,22.48
2023-02-11T18:33:28.229Z,20.77
2023-02-11T18:35:57.031Z,20.23
2023-02-11T18:38:25.897Z,18.95
2023-02-11T18:40:54.159Z,18.00
2023-02-11T18:43:22.427Z,18.17
2023-02-11T18:45:52.618Z,17.45
2023-02-11T18:48:21.046Z,18.17
2023-02-11T18:50:49.354Z,17.30
2023-02-11T18:53:17.651Z,19.38
2023-02-11T18:55:46.741Z,16.95
2023-02-11T18:58:15.681Z,16.90
2023-02-11T19:00:46.882Z,16.40
2023-02-11T19:03:16.482Z,15.98
2023-02-11T19:05:45.465Z,16.48
2023-02-11T19:08:14.267Z,17.60
2023-02-11T19:10:42.847Z,16.83
2023-02-11T19:13:12.619Z,18.48
2023-02-11T19:15:42.396Z,17.65
2023-02-11T19:18:10.756Z,20.33
2023-02-11T19:20:42.769Z,21.15
2023-02-11T19:23:11.809Z,19.63
2023-02-11T19:25:46.689Z,19.63
2023-02-11T19:28:15.499Z,20.33
2023-02-11T19:30:43.911Z,19.67
2023-02-11T19:33:12.272Z,19.88
2023-02-11T19:35:41.954Z,19.63
2023-02-11T19:38:10.141Z,19.95
2023-02-11T19:40:38.426Z,20.83
2023-02-11T19:43:06.654Z,21.67
2023-02-11T19:45:37.791Z,20.30
2023-02-11T19:48:06.412Z,20.55
2023-02-11T19:50:34.617Z,21.02
2023-02-11T19:53:04.205Z,19.98
2023-02-11T19:55:35.238Z,20.08
2023-02-11T19:58:03.538Z,20.83
2023-02-11T20:00:31.743Z,19.77
2023-02-11T20:03:00.123Z,19.67
2023-02-11T20:05:28.738Z,23.23
2023-02-11T20:07:57.048Z,77.80
2023-02-11T20:10:27.408Z,82.85
2023-02-11T20:12:55.917Z,106.00
2023-02-11T20:15:24.297Z,107.15
2023-02-11T20:17:52.552Z,102.38
2023-02-11T20:20:20.882Z,85.10
2023-02-11T20:22:49.150Z,72.43
2023-02-11T20:25:17.553Z,70.07
2023-02-11T20:27:47.337Z,82.40
2023-02-11T20:30:15.951Z,74.15
2023-02-11T20:32:44.289Z,109.85
2023-02-11T20:35:12.519Z,98.32
2023-02-11T20:37:43.781Z,111.25
2023-02-11T20:42:40.878Z,77.97
2023-02-11T20:45:11.858Z,54.90
2023-02-11T20:47:40.120Z,44.95
2023-02-11T20:50:09.229Z,61.00
2023-02-11T20:52:37.458Z,78.40
2023-02-11T20:55:06.576Z,96.93
2023-02-11T20:57:35.260Z,108.97
2023-02-11T21:00:04.283Z,106.88
2023-02-11T21:02:33.891Z,113.97
2023-02-11T21:05:02.120Z,93.68
2023-02-11T21:07:31.368Z,91.00
2023-02-11T21:09:59.558Z,74.70
2023-02-11T21:12:27.867Z,59.90
2023-02-11T21:14:57.904Z,47.53
2023-02-11T21:17:26.612Z,39.45
2023-02-11T21:19:56.339Z,33.60
2023-02-11T21:22:24.812Z,32.28
2023-02-11T21:24:53.091Z,31.58
2023-02-11T21:27:21.277Z,26.88
2023-02-11T21:29:54.520Z,31.20
2023-02-11T21:32:23.170Z,27.63
2023-02-11T21:34:51.474Z,26.25
2023-02-11T21:37:21.151Z,25.02
2023-02-11T21:39:49.359Z,23.15
2023-02-11T21:42:17.716Z,23.30
2023-02-11T21:44:45.945Z,22.15
2023-02-11T21:47:14.206Z,21.08
2023-02-11T21:49:42.541Z,23.17
2023-02-11T21:52:10.793Z,21.95
2023-02-11T21:54:40.356Z,21.13
2023-02-11T21:57:09.168Z,21.45
2023-02-11T21:59:37.558Z,22.00
2023-02-11T22:02:05.834Z,21.17
2023-02-11T22:04:34.551Z,21.38
2023-02-11T22:07:03.361Z,22.00
2023-02-11T22:09:31.619Z,22.38
2023-02-11T22:12:01.189Z,25.40
2023-02-11T22:14:32.195Z,24.05
2023-02-11T22:17:00.600Z,23.55
2023-02-11T22:19:28.864Z,21.98
2023-02-11T22:21:57.130Z,22.23
2023-02-11T22:24:25.427Z,21.38
2023-02-11T22:26:53.672Z,21.73
2023-02-11T22:29:23.468Z,21.80
2023-02-11T22:31:51.699Z,18.58
2023-02-11T22:34:19.974Z,18.67
2023-02-11T22:36:48.378Z,18.10
2023-02-11T22:39:17.980Z,18.83
2023-02-11T22:41:48.204Z,16.80
2023-02-11T22:44:17.472Z,16.80
2023-02-11T22:46:47.121Z,19.05
2023-02-11T22:49:16.629Z,20.48
2023-02-11T22:51:45.228Z,19.75
2023-02-11T22:54:15.048Z,19.83
2023-02-11T22:56:43.687Z,19.90
2023-02-11T22:59:15.917Z,20.90
2023-02-11T23:01:44.910Z,19.77
2023-02-11T23:04:15.992Z,19.83
2023-02-11T23:06:44.536Z,19.20
2023-02-11T23:09:13.497Z,18.52
2023-02-11T23:11:42.129Z,18.73
2023-02-11T23:14:12.193Z,17.70
2023-02-11T23:16:41.033Z,17.50
2023-02-11T23:19:12.356Z,18.08
2023-02-11T23:21:42.154Z,17.88
2023-02-11T23:24:13.990Z,17.05
2023-02-11T23:26:43.276Z,16.30
2023-02-11T23:29:12.320Z,19.35
2023-02-11T23:31:43.945Z,22.17
2023-02-11T23:34:15.005Z,18.13
2023-02-11T23:36:45.080Z,16.60
2023-02-11T23:39:15.945Z,16.35
2023-02-11T23:41:44.671Z,16.20
2023-02-11T23:44:13.361Z,16.45
2023-02-11T23:46:41.626Z,15.45
2023-02-11T23:49:09.896Z,15.68
2023-02-11T23:51:38.263Z,15.10
2023-02-11T23:54:07.894Z,15.07
2023-02-11T23:56:37.537Z,14.90
2023-02-11T23:59:06.384Z,16.52
